createdAt,value
2023-12-26T00:02:46.158Z,1.77
2023-12-26T00:07:48.069Z,0.63
2023-12-26T00:12:50.070Z,0.63
2023-12-26T00:17:52.088Z,1.33
2023-12-26T00:22:54.721Z,1.15
2023-12-26T00:27:56.825Z,0.63
2023-12-26T00:33:01.324Z,0.95
2023-12-26T00:38:05.763Z,1.00
2023-12-26T00:43:09.896Z,0.88
2023-12-26T00:48:15.264Z,1.38
2023-12-26T00:53:22.262Z,0.60
2023-12-26T00:58:27.039Z,0.57
2023-12-26T01:03:29.218Z,0.95
2023-12-26T01:08:31.236Z,1.25
2023-12-26T01:13:36.201Z,0.75
2023-12-26T01:18:38.403Z,0.98
2023-12-26T01:23:40.521Z,0.32
2023-12-26T01:28:44.507Z,0.85
2023-12-26T01:33:46.421Z,0.50
2023-12-26T01:38:48.686Z,0.25
2023-12-26T01:43:50.589Z,0.05
2023-12-26T01:48:55.211Z,0.80
2023-12-26T01:54:00.271Z,0.30
2023-12-26T01:59:03.964Z,0.20
2023-12-26T02:04:06.467Z,0.60
2023-12-26T02:09:13.900Z,0.38
2023-12-26T02:14:15.864Z,0.10
2023-12-26T02:19:20.486Z,0.52
2023-12-26T02:24:22.465Z,0.38
2023-12-26T02:29:26.126Z,0.22
2023-12-26T02:34:28.297Z,0.40
2023-12-26T02:39:30.658Z,0.20
2023-12-26T02:44:32.586Z,0.30
2023-12-26T02:49:34.646Z,0.30
2023-12-26T02:54:37.210Z,0.15
2023-12-26T02:59:39.232Z,0.32
2023-12-26T03:04:41.112Z,0.10
2023-12-26T03:09:43.031Z,0.40
2023-12-26T03:14:45.004Z,0.10
2023-12-26T03:19:46.882Z,0.10
2023-12-26T03:24:49.023Z,0.10
2023-12-26T03:29:51.066Z,0.30
2023-12-26T03:34:53.533Z,0.15
2023-12-26T03:39:58.051Z,0.13
2023-12-26T03:45:00.438Z,0.13
2023-12-26T03:50:07.879Z,0.28
2023-12-26T03:55:09.918Z,0.35
2023-12-26T04:00:12.595Z,0.03
2023-12-26T04:05:14.701Z,0.68
2023-12-26T04:10:16.648Z,0.15
2023-12-26T04:15:18.826Z,0.30
2023-12-26T04:20:23.256Z,0.10
2023-12-26T04:25:27.808Z,0.22
2023-12-26T04:30:29.677Z,0.10
2023-12-26T04:35:31.568Z,0.10
2023-12-26T04:40:33.586Z,0.30
2023-12-26T04:45:39.657Z,0.52
2023-12-26T04:50:41.745Z,0.22
2023-12-26T04:55:43.773Z,0.13
2023-12-26T05:00:45.821Z,0.35
2023-12-26T05:05:47.813Z,0.47
2023-12-26T05:10:49.689Z,1.55
2023-12-26T05:15:51.588Z,3.85
2023-12-26T05:20:53.606Z,3.13
2023-12-26T05:26:01.916Z,1.65
2023-12-26T05:31:14.471Z,1.83
2023-12-26T05:36:16.666Z,1.25
2023-12-26T05:41:20.751Z,0.82
2023-12-26T05:46:24.758Z,0.88
2023-12-26T05:51:26.769Z,0.70
2023-12-26T05:56:28.816Z,1.00
2023-12-26T06:01:30.634Z,0.32
2023-12-26T06:06:32.542Z,0.65
2023-12-26T06:11:36.631Z,0.20
2023-12-26T06:16:38.756Z,0.25
2023-12-26T06:21:40.638Z,0.28
2023-12-26T06:26:42.562Z,0.08
2023-12-26T06:31:44.448Z,0.80
2023-12-26T06:36:46.654Z,0.40
2023-12-26T06:41:48.561Z,0.17
2023-12-26T06:46:50.715Z,0.00
2023-12-26T06:51:52.870Z,0.22
2023-12-26T06:56:54.842Z,0.45
2023-12-26T07:01:56.853Z,0.10
2023-12-26T07:06:58.901Z,0.30
2023-12-26T07:12:00.895Z,0.10
2023-12-26T07:17:05.257Z,0.30
2023-12-26T07:22:08.369Z,0.25
2023-12-26T07:27:13.008Z,0.10
2023-12-26T07:32:14.993Z,0.35
2023-12-26T07:37:16.853Z,0.17
2023-12-26T07:42:21.224Z,0.50
2023-12-26T07:47:23.131Z,0.22
2023-12-26T07:52:24.976Z,0.35
2023-12-26T07:57:29.090Z,0.32
2023-12-26T08:02:30.919Z,0.63
2023-12-26T08:07:32.868Z,0.50
2023-12-26T08:12:34.843Z,0.30
2023-12-26T08:17:37.179Z,0.30
2023-12-26T08:22:39.063Z,0.28
2023-12-26T08:27:41.980Z,1.70
2023-12-26T08:32:43.854Z,0.90
2023-12-26T08:37:45.809Z,0.75
2023-12-26T08:42:48.806Z,0.25
2023-12-26T08:47:51.351Z,0.57
2023-12-26T08:52:56.095Z,0.28
2023-12-26T08:57:58.041Z,0.45
2023-12-26T09:03:06.659Z,0.13
2023-12-26T09:08:09.613Z,0.50
2023-12-26T09:13:12.516Z,0.43
2023-12-26T09:18:14.436Z,0.80
2023-12-26T09:23:19.819Z,0.40
2023-12-26T09:28:22.010Z,0.10
2023-12-26T09:33:23.927Z,0.15
2023-12-26T09:38:25.919Z,0.32
2023-12-26T09:43:28.278Z,0.40
2023-12-26T09:48:34.973Z,1.73
2023-12-26T09:53:45.318Z,1.08
2023-12-26T09:58:47.287Z,1.25
2023-12-26T10:03:51.954Z,1.10
2023-12-26T10:08:54.062Z,1.35
2023-12-26T10:13:56.957Z,0.43
2023-12-26T10:18:58.809Z,0.25
2023-12-26T10:24:00.957Z,0.52
2023-12-26T10:29:03.798Z,0.82
2023-12-26T10:34:19.929Z,0.98
2023-12-26T10:39:21.980Z,0.43
2023-12-26T10:44:30.472Z,0.90
2023-12-26T10:49:36.335Z,1.00
2023-12-26T10:54:42.142Z,3.25
2023-12-26T10:59:44.024Z,0.77
2023-12-26T11:04:46.803Z,0.50
2023-12-26T11:09:49.114Z,0.50
2023-12-26T11:14:53.605Z,0.38
2023-12-26T11:19:55.565Z,0.10
2023-12-26T11:24:59.663Z,0.30
2023-12-26T11:30:01.679Z,0.40
2023-12-26T11:35:03.648Z,1.20
2023-12-26T11:40:05.572Z,1.23
2023-12-26T11:45:07.486Z,4.50
2023-12-26T11:50:10.013Z,2.70
2023-12-26T11:55:14.717Z,1.83
2023-12-26T12:00:17.073Z,0.52
2023-12-26T12:05:18.959Z,1.35
2023-12-26T12:10:21.166Z,1.23
2023-12-26T12:15:23.240Z,1.05
2023-12-26T12:20:25.400Z,0.73
2023-12-26T12:25:27.340Z,0.40
2023-12-26T12:30:29.280Z,0.30
2023-12-26T12:35:31.178Z,1.27
2023-12-26T12:40:33.177Z,1.08
2023-12-26T12:45:35.356Z,1.67
2023-12-26T12:50:37.194Z,0.98
2023-12-26T12:55:42.272Z,1.33
2023-12-26T13:00:44.920Z,1.20
2023-12-26T13:05:46.917Z,0.77
2023-12-26T13:10:48.955Z,1.48
2023-12-26T13:15:53.161Z,0.77
2023-12-26T13:20:57.406Z,1.20
2023-12-26T13:26:04.921Z,1.55
2023-12-26T13:31:07.149Z,1.27
2023-12-26T13:36:09.176Z,0.93
2023-12-26T13:41:14.386Z,1.52
2023-12-26T13:46:16.601Z,1.70
2023-12-26T13:51:19.296Z,2.80
2023-12-26T13:56:21.593Z,1.77
2023-12-26T14:01:24.446Z,1.35
2023-12-26T14:06:29.910Z,1.02
2023-12-26T14:11:36.747Z,1.17
2023-12-26T14:16:38.930Z,0.20
2023-12-26T14:21:44.295Z,1.73
2023-12-26T14:26:46.245Z,1.52
2023-12-26T14:31:48.426Z,0.43
2023-12-26T14:36:51.353Z,0.50
2023-12-26T14:41:53.319Z,0.35
2023-12-26T14:46:55.175Z,1.17
2023-12-26T14:51:57.270Z,1.05
2023-12-26T14:56:59.292Z,1.48
2023-12-26T15:02:02.945Z,2.00
2023-12-26T15:07:07.039Z,1.23
2023-12-26T15:12:09.243Z,1.60
2023-12-26T15:17:14.580Z,1.05
2023-12-26T15:22:17.044Z,0.88
2023-12-26T15:27:19.062Z,2.53
2023-12-26T15:32:21.386Z,1.92
2023-12-26T15:37:23.387Z,2.83
2023-12-26T15:42:25.556Z,3.83
2023-12-26T15:47:27.391Z,3.35
2023-12-26T15:52:29.192Z,4.53
2023-12-26T15:57:33.497Z,4.05
2023-12-26T16:02:37.211Z,5.90
2023-12-26T16:07:39.419Z,4.95
2023-12-26T16:12:41.854Z,6.80
2023-12-26T16:17:46.206Z,5.75
2023-12-26T16:22:48.201Z,8.45
2023-12-26T16:27:49.955Z,7.32
2023-12-26T16:32:52.171Z,5.70
2023-12-26T16:37:54.174Z,4.50
2023-12-26T16:42:58.258Z,1.98
2023-12-26T16:48:04.243Z,1.23
2023-12-26T16:53:06.097Z,0.82
2023-12-26T16:58:10.334Z,1.30
2023-12-26T17:03:12.247Z,1.70
2023-12-26T17:08:16.493Z,1.23
2023-12-26T17:13:20.459Z,1.33
2023-12-26T17:18:23.501Z,1.40
2023-12-26T17:23:25.435Z,0.88
2023-12-26T17:28:27.195Z,0.90
2023-12-26T17:33:31.454Z,2.17
2023-12-26T17:38:33.468Z,2.33
2023-12-26T17:43:37.858Z,1.75
2023-12-26T17:48:39.905Z,1.73
2023-12-26T17:53:41.880Z,2.45
2023-12-26T17:58:43.779Z,2.22
2023-12-26T18:03:46.218Z,1.80
2023-12-26T18:08:48.242Z,3.28
2023-12-26T18:13:50.159Z,1.05
2023-12-26T18:18:52.248Z,1.23
2023-12-26T18:23:54.465Z,1.25
2023-12-26T18:28:58.453Z,1.98
2023-12-26T18:34:03.102Z,1.40
2023-12-26T18:39:05.322Z,2.20
2023-12-26T18:44:10.123Z,4.68
2023-12-26T18:49:12.683Z,3.78
2023-12-26T18:54:15.330Z,4.68
2023-12-26T18:59:18.638Z,1.27
2023-12-26T19:04:21.058Z,2.65
2023-12-26T19:09:23.267Z,1.65
2023-12-26T19:14:27.330Z,3.88
2023-12-26T19:19:31.791Z,1.98
2023-12-26T19:24:33.743Z,4.35
2023-12-26T19:29:37.759Z,2.40
2023-12-26T19:34:39.548Z,3.15
2023-12-26T19:39:41.544Z,2.47
2023-12-26T19:44:46.085Z,2.35
2023-12-26T19:49:48.171Z,2.72
2023-12-26T19:54:50.384Z,2.40
2023-12-26T19:59:52.424Z,2.95
2023-12-26T20:04:54.570Z,3.05
2023-12-26T20:09:58.181Z,2.47
2023-12-26T20:15:00.438Z,3.58
2023-12-26T20:20:02.751Z,2.38
2023-12-26T20:25:08.379Z,3.83
2023-12-26T20:30:12.580Z,3.55
2023-12-26T20:35:16.673Z,2.53
2023-12-26T20:40:18.524Z,5.85
2023-12-26T20:45:20.733Z,1.48
2023-12-26T20:50:23.885Z,1.70
2023-12-26T20:55:27.195Z,3.70
2023-12-26T21:00:31.659Z,2.15
2023-12-26T21:05:33.789Z,2.70
2023-12-26T21:10:35.917Z,0.98
2023-12-26T21:15:40.311Z,0.35
2023-12-26T21:20:42.440Z,1.55
2023-12-26T21:25:46.356Z,2.58
2023-12-26T21:30:48.986Z,1.17
2023-12-26T21:35:52.094Z,1.42
2023-12-26T21:40:56.916Z,1.75
2023-12-26T21:45:59.350Z,2.00
2023-12-26T21:51:01.135Z,1.80
2023-12-26T21:56:10.377Z,1.98
2023-12-26T22:01:12.378Z,1.95
2023-12-26T22:06:14.310Z,0.57
2023-12-26T22:11:16.806Z,0.80
2023-12-26T22:16:22.928Z,1.00
2023-12-26T22:21:25.250Z,0.70
2023-12-26T22:26:29.569Z,0.55
2023-12-26T22:31:31.433Z,1.13
2023-12-26T22:36:33.265Z,1.63
2023-12-26T22:41:35.382Z,0.22
2023-12-26T22:46:39.435Z,0.38
2023-12-26T22:51:43.701Z,0.40
2023-12-26T22:56:45.990Z,0.20
2023-12-26T23:01:51.687Z,0.30
2023-12-26T23:06:53.618Z,0.30
2023-12-26T23:11:57.749Z,0.30
2023-12-26T23:16:59.768Z,0.70
2023-12-26T23:22:04.249Z,0.20
2023-12-26T23:27:06.070Z,0.00
2023-12-26T23:32:10.232Z,0.10
2023-12-26T23:37:12.078Z,0.20
2023-12-26T23:42:16.304Z,0.30
2023-12-26T23:47:18.741Z,0.10
2023-12-26T23:52:20.766Z,0.00
2023-12-26T23:57:24.894Z,0.10
